sensor_id;sensor_type;location;lat;lon;timestamp;temperature;humidity
53272;DHT22;39160;48.580;7.756;2023-07-13T00:02:16;24.50;99.20
53272;DHT22;39160;48.580;7.756;2023-07-13T00:07:07;24.50;99.30
53272;DHT22;39160;48.580;7.756;2023-07-13T00:11:58;24.40;99.10
53272;DHT22;39160;48.580;7.756;2023-07-13T00:16:49;24.40;99.10
53272;DHT22;39160;48.580;7.756;2023-07-13T00:21:40;24.30;99.00
53272;DHT22;39160;48.580;7.756;2023-07-13T00:26:31;24.30;99.00
53272;DHT22;39160;48.580;7.756;2023-07-13T00:31:23;24.20;98.90
53272;DHT22;39160;48.580;7.756;2023-07-13T00:36:13;24.10;99.00
53272;DHT22;39160;48.580;7.756;2023-07-13T00:41:05;24.10;99.00
53272;DHT22;39160;48.580;7.756;2023-07-13T00:50:52;24.10;98.80
53272;DHT22;39160;48.580;7.756;2023-07-13T00:55:43;24.00;98.90
53272;DHT22;39160;48.580;7.756;2023-07-13T01:00:38;24.00;98.50
53272;DHT22;39160;48.580;7.756;2023-07-13T01:05:32;23.90;98.70
53272;DHT22;39160;48.580;7.756;2023-07-13T01:10:24;24.00;98.70
53272;DHT22;39160;48.580;7.756;2023-07-13T01:15:43;23.80;98.80
53272;DHT22;39160;48.580;7.756;2023-07-13T01:20:35;23.80;98.70
53272;DHT22;39160;48.580;7.756;2023-07-13T01:25:26;23.70;98.90
53272;DHT22;39160;48.580;7.756;2023-07-13T01:30:17;23.80;98.90
53272;DHT22;39160;48.580;7.756;2023-07-13T01:35:08;23.80;99.00
53272;DHT22;39160;48.580;7.756;2023-07-13T01:39:59;23.70;99.00
53272;DHT22;39160;48.580;7.756;2023-07-13T01:44:50;23.50;99.20
53272;DHT22;39160;48.580;7.756;2023-07-13T01:49:41;23.40;99.30
53272;DHT22;39160;48.580;7.756;2023-07-13T01:54:32;23.40;99.30
53272;DHT22;39160;48.580;7.756;2023-07-13T01:59:24;23.30;99.40
53272;DHT22;39160;48.580;7.756;2023-07-13T02:04:14;23.40;99.30
53272;DHT22;39160;48.580;7.756;2023-07-13T02:09:05;23.30;99.40
53272;DHT22;39160;48.580;7.756;2023-07-13T02:13:56;23.30;99.40
53272;DHT22;39160;48.580;7.756;2023-07-13T02:18:46;23.30;99.40
53272;DHT22;39160;48.580;7.756;2023-07-13T02:23:37;23.30;99.50
53272;DHT22;39160;48.580;7.756;2023-07-13T02:28:28;23.30;99.40
53272;DHT22;39160;48.580;7.756;2023-07-13T02:33:18;23.20;99.60
53272;DHT22;39160;48.580;7.756;2023-07-13T02:38:09;23.10;99.70
53272;DHT22;39160;48.580;7.756;2023-07-13T02:43:00;23.00;99.90
53272;DHT22;39160;48.580;7.756;2023-07-13T02:47:50;22.90;99.90
53272;DHT22;39160;48.580;7.756;2023-07-13T02:52:41;23.00;99.90
53272;DHT22;39160;48.580;7.756;2023-07-13T02:57:32;23.00;99.90
53272;DHT22;39160;48.580;7.756;2023-07-13T03:02:23;23.00;99.90
53272;DHT22;39160;48.580;7.756;2023-07-13T03:07:14;23.00;99.90
53272;DHT22;39160;48.580;7.756;2023-07-13T03:12:06;22.90;99.90
53272;DHT22;39160;48.580;7.756;2023-07-13T03:16:57;22.90;99.90
53272;DHT22;39160;48.580;7.756;2023-07-13T03:21:47;22.80;99.90
53272;DHT22;39160;48.580;7.756;2023-07-13T03:26:38;22.90;99.90
53272;DHT22;39160;48.580;7.756;2023-07-13T03:31:33;22.80;99.90
53272;DHT22;39160;48.580;7.756;2023-07-13T03:36:27;22.80;99.90
53272;DHT22;39160;48.580;7.756;2023-07-13T03:41:18;22.70;99.90
53272;DHT22;39160;48.580;7.756;2023-07-13T03:46:09;22.70;99.90
53272;DHT22;39160;48.580;7.756;2023-07-13T03:51:00;22.70;99.90
53272;DHT22;39160;48.580;7.756;2023-07-13T03:55:51;22.70;99.90
53272;DHT22;39160;48.580;7.756;2023-07-13T04:00:41;22.70;99.90
53272;DHT22;39160;48.580;7.756;2023-07-13T04:05:32;22.70;99.90
53272;DHT22;39160;48.580;7.756;2023-07-13T04:10:23;22.60;99.90
53272;DHT22;39160;48.580;7.756;2023-07-13T04:15:13;22.50;99.90
53272;DHT22;39160;48.580;7.756;2023-07-13T04:20:05;22.40;99.90
53272;DHT22;39160;48.580;7.756;2023-07-13T04:24:55;22.40;99.90
53272;DHT22;39160;48.580;7.756;2023-07-13T04:29:46;22.40;99.90
53272;DHT22;39160;48.580;7.756;2023-07-13T04:34:36;22.30;99.90
53272;DHT22;39160;48.580;7.756;2023-07-13T04:39:27;22.20;99.90
53272;DHT22;39160;48.580;7.756;2023-07-13T04:44:18;22.30;99.90
53272;DHT22;39160;48.580;7.756;2023-07-13T04:49:08;22.20;99.90
53272;DHT22;39160;48.580;7.756;2023-07-13T04:53:59;22.30;99.90
53272;DHT22;39160;48.580;7.756;2023-07-13T04:58:49;22.30;99.90
53272;DHT22;39160;48.580;7.756;2023-07-13T05:03:40;22.20;99.90
53272;DHT22;39160;48.580;7.756;2023-07-13T05:08:31;22.20;99.90
53272;DHT22;39160;48.580;7.756;2023-07-13T05:13:22;22.20;99.90
53272;DHT22;39160;48.580;7.756;2023-07-13T05:18:12;22.10;99.90
53272;DHT22;39160;48.580;7.756;2023-07-13T05:23:03;22.00;99.90
53272;DHT22;39160;48.580;7.756;2023-07-13T05:27:54;22.10;99.90
53272;DHT22;39160;48.580;7.756;2023-07-13T05:32:44;22.10;99.90
53272;DHT22;39160;48.580;7.756;2023-07-13T05:37:37;22.10;99.90
53272;DHT22;39160;48.580;7.756;2023-07-13T05:42:28;22.10;99.90
53272;DHT22;39160;48.580;7.756;2023-07-13T05:47:19;22.10;99.90
53272;DHT22;39160;48.580;7.756;2023-07-13T05:52:09;22.20;99.90
53272;DHT22;39160;48.580;7.756;2023-07-13T05:57:00;22.30;99.90
53272;DHT22;39160;48.580;7.756;2023-07-13T06:01:50;22.30;99.90
53272;DHT22;39160;48.580;7.756;2023-07-13T06:06:42;22.30;99.80
53272;DHT22;39160;48.580;7.756;2023-07-13T06:11:33;22.40;99.80
53272;DHT22;39160;48.580;7.756;2023-07-13T06:16:25;22.30;99.90
53272;DHT22;39160;48.580;7.756;2023-07-13T06:21:20;22.30;99.70
53272;DHT22;39160;48.580;7.756;2023-07-13T06:26:11;22.30;99.80
53272;DHT22;39160;48.580;7.756;2023-07-13T06:31:05;22.20;99.80
53272;DHT22;39160;48.580;7.756;2023-07-13T06:35:56;22.30;99.60
53272;DHT22;39160;48.580;7.756;2023-07-13T06:40:46;22.30;99.60
53272;DHT22;39160;48.580;7.756;2023-07-13T06:45:43;22.30;99.60
53272;DHT22;39160;48.580;7.756;2023-07-13T06:50:36;22.40;99.50
53272;DHT22;39160;48.580;7.756;2023-07-13T06:55:26;22.40;99.50
53272;DHT22;39160;48.580;7.756;2023-07-13T07:00:17;22.50;99.30
53272;DHT22;39160;48.580;7.756;2023-07-13T07:05:08;22.50;99.20
53272;DHT22;39160;48.580;7.756;2023-07-13T07:09:59;22.60;99.20
53272;DHT22;39160;48.580;7.756;2023-07-13T07:14:50;22.60;99.10
53272;DHT22;39160;48.580;7.756;2023-07-13T07:19:40;22.70;99.00
53272;DHT22;39160;48.580;7.756;2023-07-13T07:24:31;22.80;98.80
53272;DHT22;39160;48.580;7.756;2023-07-13T07:29:22;22.80;98.70
53272;DHT22;39160;48.580;7.756;2023-07-13T07:34:15;22.90;98.80
53272;DHT22;39160;48.580;7.756;2023-07-13T07:39:06;22.90;98.60
53272;DHT22;39160;48.580;7.756;2023-07-13T07:43:56;23.00;98.50
53272;DHT22;39160;48.580;7.756;2023-07-13T07:48:47;23.10;98.40
53272;DHT22;39160;48.580;7.756;2023-07-13T07:53:38;23.10;98.30
53272;DHT22;39160;48.580;7.756;2023-07-13T07:58:28;23.10;98.10
53272;DHT22;39160;48.580;7.756;2023-07-13T08:03:19;23.20;98.10
53272;DHT22;39160;48.580;7.756;2023-07-13T08:08:09;23.30;98.10
53272;DHT22;39160;48.580;7.756;2023-07-13T08:13:00;23.30;98.10
53272;DHT22;39160;48.580;7.756;2023-07-13T08:17:51;23.30;98.00
53272;DHT22;39160;48.580;7.756;2023-07-13T08:22:41;23.30;97.80
53272;DHT22;39160;48.580;7.756;2023-07-13T08:27:33;23.40;97.80
53272;DHT22;39160;48.580;7.756;2023-07-13T08:32:24;23.50;97.70
53272;DHT22;39160;48.580;7.756;2023-07-13T08:37:15;23.50;97.50
53272;DHT22;39160;48.580;7.756;2023-07-13T08:47:21;23.60;97.40
53272;DHT22;39160;48.580;7.756;2023-07-13T08:52:30;23.60;97.50
53272;DHT22;39160;48.580;7.756;2023-07-13T08:57:30;23.70;97.40
53272;DHT22;39160;48.580;7.756;2023-07-13T09:02:42;23.70;97.30
53272;DHT22;39160;48.580;7.756;2023-07-13T09:07:58;23.90;97.10
53272;DHT22;39160;48.580;7.756;2023-07-13T09:18:14;23.90;96.90
53272;DHT22;39160;48.580;7.756;2023-07-13T09:23:13;24.10;96.80
53272;DHT22;39160;48.580;7.756;2023-07-13T09:28:34;24.10;96.70
53272;DHT22;39160;48.580;7.756;2023-07-13T09:33:27;24.10;96.50
53272;DHT22;39160;48.580;7.756;2023-07-13T09:38:22;24.10;96.70
53272;DHT22;39160;48.580;7.756;2023-07-13T09:43:17;24.10;96.70
53272;DHT22;39160;48.580;7.756;2023-07-13T09:48:14;24.10;96.70
53272;DHT22;39160;48.580;7.756;2023-07-13T09:53:18;24.20;96.70
53272;DHT22;39160;48.580;7.756;2023-07-13T09:58:15;24.10;96.80
53272;DHT22;39160;48.580;7.756;2023-07-13T10:08:25;24.20;97.00
53272;DHT22;39160;48.580;7.756;2023-07-13T10:13:51;24.20;96.80
53272;DHT22;39160;48.580;7.756;2023-07-13T10:18:53;24.20;96.80
53272;DHT22;39160;48.580;7.756;2023-07-13T10:28:59;24.50;96.90
53272;DHT22;39160;48.580;7.756;2023-07-13T10:33:51;24.50;96.90
53272;DHT22;39160;48.580;7.756;2023-07-13T10:38:43;24.60;96.90
53272;DHT22;39160;48.580;7.756;2023-07-13T10:43:38;24.60;96.70
53272;DHT22;39160;48.580;7.756;2023-07-13T10:48:30;24.50;96.70
53272;DHT22;39160;48.580;7.756;2023-07-13T10:53:34;24.50;96.80
53272;DHT22;39160;48.580;7.756;2023-07-13T11:03:28;24.60;96.70
53272;DHT22;39160;48.580;7.756;2023-07-13T11:08:33;24.60;96.60
53272;DHT22;39160;48.580;7.756;2023-07-13T11:18:38;24.80;95.70
53272;DHT22;39160;48.580;7.756;2023-07-13T11:23:30;24.90;96.00
53272;DHT22;39160;48.580;7.756;2023-07-13T11:28:24;24.90;96.00
53272;DHT22;39160;48.580;7.756;2023-07-13T11:38:40;25.10;95.70
53272;DHT22;39160;48.580;7.756;2023-07-13T11:43:32;25.10;95.40
53272;DHT22;39160;48.580;7.756;2023-07-13T11:48:29;25.00;95.10
53272;DHT22;39160;48.580;7.756;2023-07-13T11:53:20;24.90;94.70
53272;DHT22;39160;48.580;7.756;2023-07-13T11:58:11;25.00;94.70
53272;DHT22;39160;48.580;7.756;2023-07-13T12:03:03;24.90;94.40
53272;DHT22;39160;48.580;7.756;2023-07-13T12:07:55;25.00;94.10
53272;DHT22;39160;48.580;7.756;2023-07-13T12:12:59;24.90;93.90
53272;DHT22;39160;48.580;7.756;2023-07-13T12:17:50;25.10;93.60
53272;DHT22;39160;48.580;7.756;2023-07-13T12:22:46;25.30;93.60
53272;DHT22;39160;48.580;7.756;2023-07-13T12:27:37;25.60;93.30
53272;DHT22;39160;48.580;7.756;2023-07-13T12:32:28;25.70;93.20
53272;DHT22;39160;48.580;7.756;2023-07-13T12:37:21;25.90;92.80
53272;DHT22;39160;48.580;7.756;2023-07-13T12:47:16;26.10;92.00
53272;DHT22;39160;48.580;7.756;2023-07-13T12:52:19;26.20;91.50
53272;DHT22;39160;48.580;7.756;2023-07-13T12:57:16;26.20;91.90
53272;DHT22;39160;48.580;7.756;2023-07-13T13:02:34;26.20;91.70
53272;DHT22;39160;48.580;7.756;2023-07-13T13:07:26;26.20;91.50
53272;DHT22;39160;48.580;7.756;2023-07-13T13:12:17;26.40;91.40
53272;DHT22;39160;48.580;7.756;2023-07-13T13:17:29;26.50;91.30
53272;DHT22;39160;48.580;7.756;2023-07-13T13:22:21;26.50;91.20
53272;DHT22;39160;48.580;7.756;2023-07-13T13:27:18;26.40;91.00
53272;DHT22;39160;48.580;7.756;2023-07-13T13:32:12;26.50;90.70
53272;DHT22;39160;48.580;7.756;2023-07-13T13:37:03;26.50;90.30
53272;DHT22;39160;48.580;7.756;2023-07-13T13:41:55;26.70;90.10
53272;DHT22;39160;48.580;7.756;2023-07-13T13:46:48;26.80;89.60
53272;DHT22;39160;48.580;7.756;2023-07-13T13:51:40;26.80;89.00
53272;DHT22;39160;48.580;7.756;2023-07-13T13:56:30;26.80;88.50
53272;DHT22;39160;48.580;7.756;2023-07-13T14:01:22;26.60;88.10
53272;DHT22;39160;48.580;7.756;2023-07-13T14:06:17;26.60;87.40
53272;DHT22;39160;48.580;7.756;2023-07-13T14:11:13;26.80;86.80
53272;DHT22;39160;48.580;7.756;2023-07-13T14:16:17;26.80;86.70
53272;DHT22;39160;48.580;7.756;2023-07-13T14:21:15;26.70;86.10
53272;DHT22;39160;48.580;7.756;2023-07-13T14:26:15;26.70;85.70
53272;DHT22;39160;48.580;7.756;2023-07-13T14:31:06;26.60;85.40
53272;DHT22;39160;48.580;7.756;2023-07-13T14:35:57;26.70;85.50
53272;DHT22;39160;48.580;7.756;2023-07-13T14:40:47;26.80;85.30
53272;DHT22;39160;48.580;7.756;2023-07-13T14:45:41;26.80;85.10
53272;DHT22;39160;48.580;7.756;2023-07-13T14:50:33;26.70;84.90
53272;DHT22;39160;48.580;7.756;2023-07-13T14:55:25;26.70;84.30
53272;DHT22;39160;48.580;7.756;2023-07-13T15:00:19;26.70;84.90
53272;DHT22;39160;48.580;7.756;2023-07-13T15:05:19;26.80;84.80
53272;DHT22;39160;48.580;7.756;2023-07-13T15:10:19;27.00;84.50
53272;DHT22;39160;48.580;7.756;2023-07-13T15:15:11;27.40;83.80
53272;DHT22;39160;48.580;7.756;2023-07-13T15:20:18;27.30;83.60
53272;DHT22;39160;48.580;7.756;2023-07-13T15:25:17;27.40;82.80
53272;DHT22;39160;48.580;7.756;2023-07-13T15:30:08;27.60;82.50
53272;DHT22;39160;48.580;7.756;2023-07-13T15:34:59;27.90;82.20
53272;DHT22;39160;48.580;7.756;2023-07-13T15:39:50;28.30;81.10
53272;DHT22;39160;48.580;7.756;2023-07-13T15:44:41;28.50;81.00
53272;DHT22;39160;48.580;7.756;2023-07-13T15:49:31;29.30;79.90
53272;DHT22;39160;48.580;7.756;2023-07-13T15:54:22;29.80;79.10
53272;DHT22;39160;48.580;7.756;2023-07-13T15:59:14;30.00;78.80
53272;DHT22;39160;48.580;7.756;2023-07-13T16:04:07;29.70;78.20
53272;DHT22;39160;48.580;7.756;2023-07-13T16:08:58;30.10;78.00
53272;DHT22;39160;48.580;7.756;2023-07-13T16:13:50;30.30;77.40
53272;DHT22;39160;48.580;7.756;2023-07-13T16:18:48;29.50;77.30
53272;DHT22;39160;48.580;7.756;2023-07-13T16:23:39;29.50;77.50
53272;DHT22;39160;48.580;7.756;2023-07-13T16:28:30;29.80;76.80
53272;DHT22;39160;48.580;7.756;2023-07-13T16:33:21;30.10;76.50
53272;DHT22;39160;48.580;7.756;2023-07-13T16:38:17;30.10;76.30
53272;DHT22;39160;48.580;7.756;2023-07-13T16:43:11;30.50;75.80
53272;DHT22;39160;48.580;7.756;2023-07-13T16:48:12;30.60;75.80
53272;DHT22;39160;48.580;7.756;2023-07-13T16:53:03;30.50;75.20
53272;DHT22;39160;48.580;7.756;2023-07-13T16:58:00;30.60;75.20
53272;DHT22;39160;48.580;7.756;2023-07-13T17:03:04;30.60;74.70
53272;DHT22;39160;48.580;7.756;2023-07-13T17:07:59;30.50;73.70
53272;DHT22;39160;48.580;7.756;2023-07-13T17:12:53;30.40;73.90
53272;DHT22;39160;48.580;7.756;2023-07-13T17:17:48;30.40;73.70
53272;DHT22;39160;48.580;7.756;2023-07-13T17:22:39;30.40;73.70
53272;DHT22;39160;48.580;7.756;2023-07-13T17:27:30;30.40;73.50
53272;DHT22;39160;48.580;7.756;2023-07-13T17:32:23;30.20;73.10
53272;DHT22;39160;48.580;7.756;2023-07-13T17:37:15;30.20;72.80
53272;DHT22;39160;48.580;7.756;2023-07-13T17:42:06;30.20;72.20
53272;DHT22;39160;48.580;7.756;2023-07-13T17:46:57;30.10;72.30
53272;DHT22;39160;48.580;7.756;2023-07-13T17:51:48;29.80;72.10
53272;DHT22;39160;48.580;7.756;2023-07-13T17:56:39;29.70;72.10
53272;DHT22;39160;48.580;7.756;2023-07-13T18:01:31;29.40;72.10
53272;DHT22;39160;48.580;7.756;2023-07-13T18:06:25;29.40;71.50
53272;DHT22;39160;48.580;7.756;2023-07-13T18:11:20;29.20;71.30
53272;DHT22;39160;48.580;7.756;2023-07-13T18:16:29;29.00;71.50
53272;DHT22;39160;48.580;7.756;2023-07-13T18:21:22;28.90;71.30
53272;DHT22;39160;48.580;7.756;2023-07-13T18:26:16;28.70;71.50
53272;DHT22;39160;48.580;7.756;2023-07-13T18:31:11;28.70;71.50
53272;DHT22;39160;48.580;7.756;2023-07-13T18:36:04;28.70;71.10
53272;DHT22;39160;48.580;7.756;2023-07-13T18:40:56;28.50;71.20
53272;DHT22;39160;48.580;7.756;2023-07-13T18:45:55;28.40;71.40
53272;DHT22;39160;48.580;7.756;2023-07-13T18:50:46;28.50;71.00
53272;DHT22;39160;48.580;7.756;2023-07-13T18:55:36;28.30;71.00
53272;DHT22;39160;48.580;7.756;2023-07-13T19:00:29;28.30;71.10
53272;DHT22;39160;48.580;7.756;2023-07-13T19:05:29;28.20;71.20
53272;DHT22;39160;48.580;7.756;2023-07-13T19:10:22;28.10;71.10
53272;DHT22;39160;48.580;7.756;2023-07-13T19:15:19;28.20;71.10
53272;DHT22;39160;48.580;7.756;2023-07-13T19:20:14;28.20;71.00
53272;DHT22;39160;48.580;7.756;2023-07-13T19:25:13;28.20;71.10
53272;DHT22;39160;48.580;7.756;2023-07-13T19:30:05;28.10;71.30
53272;DHT22;39160;48.580;7.756;2023-07-13T19:34:56;28.00;71.40
53272;DHT22;39160;48.580;7.756;2023-07-13T19:39:46;28.00;71.70
53272;DHT22;39160;48.580;7.756;2023-07-13T19:44:41;27.90;71.70
53272;DHT22;39160;48.580;7.756;2023-07-13T19:49:32;27.90;71.90
53272;DHT22;39160;48.580;7.756;2023-07-13T19:54:23;27.80;71.90
53272;DHT22;39160;48.580;7.756;2023-07-13T19:59:22;27.70;72.10
53272;DHT22;39160;48.580;7.756;2023-07-13T20:04:13;27.70;72.20
53272;DHT22;39160;48.580;7.756;2023-07-13T20:09:18;27.60;72.30
53272;DHT22;39160;48.580;7.756;2023-07-13T20:14:24;27.70;72.30
53272;DHT22;39160;48.580;7.756;2023-07-13T20:19:15;27.70;72.40
53272;DHT22;39160;48.580;7.756;2023-07-13T20:24:18;27.50;72.50
53272;DHT22;39160;48.580;7.756;2023-07-13T20:29:08;27.60;72.50
53272;DHT22;39160;48.580;7.756;2023-07-13T20:34:02;27.50;72.60
53272;DHT22;39160;48.580;7.756;2023-07-13T20:38:53;27.50;72.70
53272;DHT22;39160;48.580;7.756;2023-07-13T20:43:46;27.50;72.80
53272;DHT22;39160;48.580;7.756;2023-07-13T20:48:41;27.50;73.00
53272;DHT22;39160;48.580;7.756;2023-07-13T20:53:38;27.30;73.10
53272;DHT22;39160;48.580;7.756;2023-07-13T20:58:28;27.30;73.30
53272;DHT22;39160;48.580;7.756;2023-07-13T21:03:27;27.20;73.40
53272;DHT22;39160;48.580;7.756;2023-07-13T21:08:20;27.20;73.50
53272;DHT22;39160;48.580;7.756;2023-07-13T21:13:11;27.20;73.50
53272;DHT22;39160;48.580;7.756;2023-07-13T21:18:03;27.20;73.70
53272;DHT22;39160;48.580;7.756;2023-07-13T21:22:54;27.10;73.90
53272;DHT22;39160;48.580;7.756;2023-07-13T21:27:44;27.10;74.00
53272;DHT22;39160;48.580;7.756;2023-07-13T21:32:35;27.10;74.10
53272;DHT22;39160;48.580;7.756;2023-07-13T21:37:31;27.00;74.20
53272;DHT22;39160;48.580;7.756;2023-07-13T21:42:21;26.90;74.20
53272;DHT22;39160;48.580;7.756;2023-07-13T21:47:12;26.80;74.50
53272;DHT22;39160;48.580;7.756;2023-07-13T21:52:17;26.80;74.50
53272;DHT22;39160;48.580;7.756;2023-07-13T21:57:15;26.70;74.70
53272;DHT22;39160;48.580;7.756;2023-07-13T22:02:10;26.70;74.80
53272;DHT22;39160;48.580;7.756;2023-07-13T22:07:01;26.70;74.90
53272;DHT22;39160;48.580;7.756;2023-07-13T22:11:52;26.70;75.10
53272;DHT22;39160;48.580;7.756;2023-07-13T22:16:43;26.60;75.40
53272;DHT22;39160;48.580;7.756;2023-07-13T22:21:33;26.50;75.50
53272;DHT22;39160;48.580;7.756;2023-07-13T22:26:29;26.40;75.70
53272;DHT22;39160;48.580;7.756;2023-07-13T22:31:22;26.40;75.90
53272;DHT22;39160;48.580;7.756;2023-07-13T22:36:15;26.30;76.20
53272;DHT22;39160;48.580;7.756;2023-07-13T22:41:18;26.30;76.30
53272;DHT22;39160;48.580;7.756;2023-07-13T22:46:14;26.20;76.50
53272;DHT22;39160;48.580;7.756;2023-07-13T22:51:16;26.10;76.90
53272;DHT22;39160;48.580;7.756;2023-07-13T22:56:07;26.20;77.20
53272;DHT22;39160;48.580;7.756;2023-07-13T23:00:59;26.00;77.20
53272;DHT22;39160;48.580;7.756;2023-07-13T23:05:50;26.00;77.60
53272;DHT22;39160;48.580;7.756;2023-07-13T23:10:42;25.80;77.90
53272;DHT22;39160;48.580;7.756;2023-07-13T23:15:34;25.80;78.00
53272;DHT22;39160;48.580;7.756;2023-07-13T23:20:34;25.70;78.10
53272;DHT22;39160;48.580;7.756;2023-07-13T23:25:26;25.60;78.20
53272;DHT22;39160;48.580;7.756;2023-07-13T23:30:19;25.50;78.50
53272;DHT22;39160;48.580;7.756;2023-07-13T23:35:15;25.50;78.60
53272;DHT22;39160;48.580;7.756;2023-07-13T23:40:17;25.50;78.70
53272;DHT22;39160;48.580;7.756;2023-07-13T23:45:16;25.50;78.80
53272;DHT22;39160;48.580;7.756;2023-07-13T23:50:16;25.40;79.10
53272;DHT22;39160;48.580;7.756;2023-07-13T23:55:15;25.30;79.40
